Time;durP1;ratioP1;P1;durP2;ratioP2;P2;SDS_P1;SDS_P2;PMS_P1;PMS_P2;Temp;Humidity;BMP_temperature;BMP_pressure;BME280_temperature;BME280_humidity;BME280_pressure;Samples;Min_cycle;Max_cycle;Signal;HPM_P1;HPM_P2
2023/11/08 00:01:11;;;;;;;0.50;0.50;;;;;;;10.86;100.00;100733.75;5033478;28;20151;-75
2023/11/08 00:03:38;;;;;;;0.57;0.57;;;;;;;10.34;100.00;100629.47;5048271;28;20041;-75
2023/11/08 00:06:03;;;;;;;5.15;4.65;;;;;;;10.41;100.00;100640.00;5056347;28;20017;-74
2023/11/08 00:08:30;;;;;;;9.02;6.88;;;;;;;10.40;100.00;100622.50;5057194;28;20017;-74
2023/11/08 00:10:55;;;;;;;9.10;6.93;;;;;;;10.76;100.00;100695.22;5056149;28;20473;-74
2023/11/08 00:13:21;;;;;;;5.05;4.57;;;;;;;10.41;100.00;100640.00;5055969;28;20052;-73
2023/11/08 00:15:50;;;;;;;3.88;3.53;;;;;;;10.42;100.00;100636.47;5055567;28;20926;-73
2023/11/08 00:18:16;;;;;;;7.63;3.95;;;;;;;10.83;100.00;100709.25;5055829;28;20035;-73
2023/11/08 00:27:26;;;;;;;0.75;0.75;;;;;;;10.71;100.00;100733.72;5033628;28;20032;-75
2023/11/08 00:33:22;;;;;;;6.18;5.57;;;;;;;10.41;100.00;100729.19;5033924;28;20045;-74
2023/11/08 00:36:43;;;;;;;5.97;3.28;;;;;;;10.65;100.00;100718.81;5034089;28;20025;-76
2023/11/08 00:39:51;;;;;;;5.90;5.00;;;;;;;10.76;100.00;100718.84;5039718;28;20128;-76
2023/11/08 00:46:22;;;;;;;5.65;5.00;;;;;;;10.86;100.00;100691.75;5048281;28;20456;-74
2023/11/08 00:48:48;;;;;;;5.30;4.20;;;;;;;10.34;100.00;100584.00;5030221;28;21531;-74
2023/11/08 00:51:13;;;;;;;11.88;6.72;;;;;;;10.22;100.00;100552.44;5040111;28;20063;-75
2023/11/08 00:53:39;;;;;;;5.22;3.80;;;;;;;10.69;100.00;100636.59;5035266;28;20032;-74
2023/11/08 00:56:05;;;;;;;6.43;5.30;;;;;;;10.67;100.00;100626.97;5034336;28;20037;-75
2023/11/08 00:58:31;;;;;;;5.68;4.53;;;;;;;10.05;100.00;100540.16;5040980;28;20389;-75
2023/11/08 01:00:57;;;;;;;5.43;4.20;;;;;;;10.61;100.00;100643.56;5035185;28;20084;-74
2023/11/08 01:06:44;;;;;;;6.53;5.85;;;;;;;10.15;100.00;100567.28;5031725;28;20036;-75
2023/11/08 01:09:10;;;;;;;4.85;3.53;;;;;;;10.11;100.00;100571.66;5042240;28;20021;-74
2023/11/08 01:11:37;;;;;;;5.78;4.13;;;;;;;10.23;100.00;100591.81;5052386;28;20021;-75
2023/11/08 01:14:04;;;;;;;15.30;6.60;;;;;;;10.40;100.00;100599.78;5036476;28;20049;-75
2023/11/08 01:16:30;;;;;;;6.25;5.05;;;;;;;10.25;100.00;100616.25;5034473;28;20049;-75
2023/11/08 01:18:56;;;;;;;3.70;3.30;;;;;;;9.91;100.00;100533.97;5042413;28;20048;-75
2023/11/08 01:21:22;;;;;;;9.07;5.53;;;;;;;10.27;100.00;100583.06;5052917;28;20037;-74
2023/11/08 01:23:51;;;;;;;8.27;6.45;;;;;;;10.40;100.00;100612.88;5035463;28;20445;-74
2023/11/08 01:26:48;;;;;;;1.00;0.73;;;;;;;10.23;100.00;100606.63;5030929;28;20393;-74
2023/11/08 01:29:52;;;;;;;6.47;4.22;;;;;;;10.37;100.00;100611.97;5032536;28;20404;-74
2023/11/08 01:35:40;;;;;;;0.55;0.55;;;;;;;9.79;100.00;100494.63;5032474;28;20037;-75
2023/11/08 01:38:05;;;;;;;13.93;7.50;;;;;;;10.36;100.00;100579.63;5031523;28;20049;-73
2023/11/08 01:43:52;;;;;;;9.80;5.57;;;;;;;9.82;100.00;100507.72;5035177;28;20088;-74
2023/11/08 01:49:39;;;;;;;0.55;0.55;;;;;;;10.32;100.00;100594.50;5034507;28;20040;-73
2023/11/08 01:52:06;;;;;;;1.30;1.20;;;;;;;9.85;100.00;100495.50;5034224;28;20117;-75
2023/11/08 01:54:32;;;;;;;6.18;5.57;;;;;;;9.84;100.00;100485.91;5034453;28;20091;-75
2023/11/08 01:57:00;;;;;;;0.77;0.77;;;;;;;9.90;100.00;100498.13;5016251;28;20099;-75
2023/11/08 01:59:27;;;;;;;10.57;5.72;;;;;;;10.07;100.00;100519.19;5034767;28;20377;-74
2023/11/08 02:01:57;;;;;;;22.20;6.22;;;;;;;9.96;100.00;100513.91;5016152;28;20040;-74
2023/11/08 02:04:23;;;;;;;5.28;4.80;;;;;;;9.98;100.00;100513.91;5016390;28;20045;-73
2023/11/08 02:06:55;;;;;;;5.40;4.25;;;;;;;10.40;100.00;100584.03;5034340;28;20041;-73
2023/11/08 02:09:21;;;;;;;6.30;5.70;;;;;;;10.02;100.00;100506.06;5034406;28;20037;-74
2023/11/08 02:11:46;;;;;;;7.78;5.10;;;;;;;10.42;100.00;100563.03;5034306;28;20471;-74
2023/11/08 02:14:12;;;;;;;1.10;1.08;;;;;;;9.77;100.00;100488.50;5033951;28;20038;-75
2023/11/08 02:16:45;;;;;;;4.93;3.85;;;;;;;9.46;100.00;100483.09;5033317;28;20148;-73
2023/11/08 02:19:11;;;;;;;4.53;3.88;;;;;;;9.93;100.00;100545.34;5053631;28;20049;-73
2023/11/08 02:21:36;;;;;;;8.82;5.75;;;;;;;10.26;100.00;100573.44;5053310;28;20089;-73
2023/11/08 02:27:23;;;;;;;0.90;0.90;;;;;;;9.43;100.00;100557.25;5053770;28;20041;-74
2023/11/08 02:29:49;;;;;;;0.30;0.30;;;;;;;9.90;100.00;100567.19;5053804;28;20029;-74
2023/11/08 02:32:14;;;;;;;4.43;3.47;;;;;;;9.37;100.00;100552.00;5035509;28;20041;-73
2023/11/08 02:34:40;;;;;;;10.93;5.18;;;;;;;9.28;100.00;100578.97;5053246;28;20041;-73
2023/11/08 02:40:27;;;;;;;3.03;1.95;;;;;;;9.23;100.00;100564.13;5053550;28;20491;-75
2023/11/08 02:42:53;;;;;;;6.25;5.65;;;;;;;9.04;100.00;100552.63;5053436;28;20029;-73
2023/11/08 02:45:21;;;;;;;8.27;4.50;;;;;;;9.46;100.00;100569.53;5053345;28;20400;-73
2023/11/08 02:47:57;;;;;;;3.50;3.15;;;;;;;9.74;100.00;100570.59;5054540;28;20329;-73
2023/11/08 02:53:44;;;;;;;5.38;4.88;;;;;;;9.86;100.00;100560.16;5050114;28;20043;-73
2023/11/08 02:59:31;;;;;;;2.53;2.33;;;;;;;9.28;100.00;100524.00;5051863;28;20094;-75
2023/11/08 03:02:15;;;;;;;3.40;3.30;;;;;;;9.60;100.00;100541.69;5052913;28;20443;-75
2023/11/08 03:04:49;;;;;;;4.68;3.92;;;;;;;9.03;100.00;100431.31;5031009;28;20048;-75
2023/11/08 03:07:14;;;;;;;4.22;2.97;;;;;;;9.29;100.00;100431.50;5037532;28;20040;-74
2023/11/08 03:09:40;;;;;;;0.30;0.30;;;;;;;9.22;100.00;100440.16;5045273;28;20315;-75
2023/11/08 03:12:07;;;;;;;6.90;6.20;;;;;;;9.86;100.00;100539.19;5049226;28;20462;-76
2023/11/08 03:14:54;;;;;;;6.97;5.03;;;;;;;9.90;100.00;100542.69;5039640;28;20409;-75
2023/11/08 03:17:20;;;;;;;7.00;6.68;;;;;;;9.16;100.00;100419.22;5034597;28;20486;-74
2023/11/08 03:19:46;;;;;;;0.20;0.20;;;;;;;8.72;100.00;100404.09;5048437;28;20040;-75
2023/11/08 03:22:16;;;;;;;0.30;0.30;;;;;;;9.42;100.00;100524.09;5033480;28;20037;-73
2023/11/08 03:24:43;;;;;;;5.47;5.03;;;;;;;8.83;100.00;100432.94;5012969;28;20131;-73
2023/11/08 03:30:39;;;;;;;0.25;0.25;;;;;;;8.56;100.00;100410.94;5032821;28;20095;-75
2023/11/08 03:33:06;;;;;;;7.82;6.05;;;;;;;8.88;100.00;100528.06;5029779;28;20096;-74
2023/11/08 03:35:32;;;;;;;11.82;6.82;;;;;;;8.28;100.00;100461.19;5038450;28;20020;-74
2023/11/08 03:37:58;;;;;;;14.50;7.78;;;;;;;8.75;100.00;100555.81;5048782;28;20045;-74
2023/11/08 03:40:23;;;;;;;8.18;7.00;;;;;;;8.47;100.00;100437.00;5030284;28;20045;-75
2023/11/08 03:43:18;;;;;;;2.05;1.95;;;;;;;9.14;100.00;100557.06;5013352;28;20124;-75
2023/11/08 03:55:50;;;;;;;3.80;3.63;;;;;;;8.42;100.00;100441.31;5028928;28;20143;-76
2023/11/08 03:58:17;;;;;;;2.90;2.80;;;;;;;8.52;100.00;100458.88;5043648;28;20060;-75
2023/11/08 04:00:42;;;;;;;5.35;5.05;;;;;;;9.02;100.00;100522.94;5043110;28;20063;-75
2023/11/08 04:03:26;;;;;;;0.70;0.70;;;;;;;9.52;100.00;100577.41;5032569;28;20096;-75
2023/11/08 04:05:52;;;;;;;;;;;;;;;9.54;100.00;100573.06;5027259;28;20063;-75
2023/11/08 04:08:17;;;;;;;33.92;13.15;;;;;;;8.37;100.00;100449.09;5024677;28;19944;-75
2023/11/08 04:10:57;;;;;;;3.95;0.93;;;;;;;9.02;100.00;100549.13;5025861;28;20395;-76
2023/11/08 04:13:31;;;;;;;2.03;1.92;;;;;;;8.93;100.00;100528.97;5029199;28;20055;-75
2023/11/08 04:16:18;;;;;;;2.67;2.47;;;;;;;8.92;100.00;100535.06;5025656;28;20033;-74
2023/11/08 04:18:44;;;;;;;8.48;8.07;;;;;;;8.43;100.00;100449.19;5013847;28;20041;-75
2023/11/08 04:21:10;;;;;;;7.85;7.03;;;;;;;8.08;100.00;100412.22;5036897;28;20380;-73
2023/11/08 04:23:35;;;;;;;4.50;3.78;;;;;;;8.69;100.00;100539.22;5048050;28;20067;-74
2023/11/08 04:26:01;;;;;;;0.50;0.50;;;;;;;8.19;100.00;100464.56;5034334;28;20053;-74
2023/11/08 04:28:27;;;;;;;0.63;0.63;;;;;;;8.18;100.00;100455.88;5048654;28;20496;-75
2023/11/08 04:30:52;;;;;;;0.50;0.47;;;;;;;8.81;100.00;100553.28;5034627;28;20026;-74
2023/11/08 04:33:18;;;;;;;6.75;6.15;;;;;;;8.17;100.00;100437.53;5041090;28;20036;-75
2023/11/08 04:36:29;;;;;;;15.13;6.63;;;;;;;8.74;100.00;100553.22;5042385;28;20021;-73
2023/11/08 04:45:37;;;;;;;1.13;0.70;;;;;;;8.46;100.00;100458.78;5024804;28;20049;-73
2023/11/08 04:48:06;;;;;;;6.28;4.30;;;;;;;8.99;100.00;100542.13;5038797;28;20025;-73
2023/11/08 04:50:32;;;;;;;1.08;1.08;;;;;;;8.53;100.00;100457.97;5051599;28;20024;-75
2023/11/08 04:52:58;;;;;;;7.10;4.53;;;;;;;9.12;100.00;100531.72;5032935;28;20052;-75
2023/11/08 04:55:23;;;;;;;6.43;6.05;;;;;;;8.74;100.00;100431.13;5052929;28;20484;-75
2023/11/08 04:57:48;;;;;;;0.22;0.22;;;;;;;8.72;100.00;100404.09;5040559;28;20037;-74
2023/11/08 05:00:14;;;;;;;1.27;1.25;;;;;;;9.44;100.00;100530.22;5024920;28;20028;-75
2023/11/08 05:02:41;;;;;;;2.00;1.90;;;;;;;9.04;100.00;100440.06;5043360;28;20029;-74
2023/11/08 05:05:09;;;;;;;1.75;1.65;;;;;;;9.56;100.00;100516.31;5047362;28;20072;-74
2023/11/08 05:07:35;;;;;;;0.30;0.30;;;;;;;9.58;100.00;100506.75;5034458;28;20534;-74
2023/11/08 05:14:11;;;;;;;16.00;14.55;;;;;;;9.81;100.00;100511.19;5042565;28;20040;-74
2023/11/08 05:17:01;;;;;;;0.38;0.38;;;;;;;9.55;100.00;100474.41;5040416;28;20385;-74
2023/11/08 05:19:27;;;;;;;0.95;0.95;;;;;;;9.59;100.00;100481.41;5015719;28;20045;-74
2023/11/08 05:21:53;;;;;;;10.65;10.13;;;;;;;9.56;100.00;100476.16;5030114;28;20032;-73
2023/11/08 05:24:19;;;;;;;15.23;13.88;;;;;;;9.92;100.00;100520.84;5031922;28;20442;-74
2023/11/08 05:26:45;;;;;;;11.55;4.75;;;;;;;9.84;100.00;100509.47;5022007;28;20054;-74
2023/11/08 05:32:32;;;;;;;0.45;0.45;;;;;;;9.45;100.00;100494.44;5032472;28;20501;-73
2023/11/08 05:34:58;;;;;;;0.65;0.65;;;;;;;9.38;100.00;100483.03;5028227;28;20045;-73
2023/11/08 05:37:23;;;;;;;0.47;0.47;;;;;;;9.78;100.00;100572.34;5025969;28;20123;-73
2023/11/08 05:39:49;;;;;;;0.30;0.30;;;;;;;10.04;100.00;100606.53;5031247;28;20042;-74
2023/11/08 05:42:16;;;;;;;21.52;8.02;;;;;;;9.44;100.00;100497.94;5029070;28;20446;-75
2023/11/08 05:44:42;;;;;;;0.98;0.98;;;;;;;10.06;100.00;100591.72;5018272;28;20505;-75
2023/11/08 05:47:08;;;;;;;3.78;3.38;;;;;;;10.21;100.00;100593.53;5021033;28;20374;-74
2023/11/08 05:49:33;;;;;;;3.60;3.40;;;;;;;10.23;100.00;100588.28;5019367;28;20060;-76
2023/11/08 05:51:59;;;;;;;0.73;0.63;;;;;;;10.26;100.00;100572.59;5011278;28;20046;-74
2023/11/08 05:54:25;;;;;;;3.67;3.28;;;;;;;10.16;100.00;100558.56;5025362;28;20049;-74
2023/11/08 05:56:52;;;;;;;4.97;2.65;;;;;;;10.39;100.00;100566.53;5032486;28;20527;-75
2023/11/08 05:59:18;;;;;;;0.95;0.85;;;;;;;10.18;100.00;100571.66;5025628;28;20033;-75
2023/11/08 06:01:44;;;;;;;2.30;2.15;;;;;;;10.31;100.00;100560.38;5031784;28;20495;-75
2023/11/08 06:04:09;;;;;;;0.93;0.93;;;;;;;9.81;100.00;100461.41;5029409;28;20045;-75
2023/11/08 06:09:57;;;;;;;4.40;3.47;;;;;;;10.60;100.00;100539.47;5030174;28;20174;-74
2023/11/08 06:12:24;;;;;;;2.20;2.03;;;;;;;10.05;100.00;100479.84;5029884;28;20513;-76
2023/11/08 06:14:50;;;;;;;1.38;1.25;;;;;;;10.03;100.00;100434.41;5029699;28;20048;-74
2023/11/08 06:21:05;;;;;;;;;;;;;;;10.96;100.00;100520.28;4998573;28;20048;-77
2023/11/08 06:23:31;;;;;;;0.20;0.20;;;;;;;10.49;100.00;100487.00;5028971;28;20296;-78
2023/11/08 06:25:58;;;;;;;5.35;4.13;;;;;;;10.96;100.00;100504.50;5025758;28;20036;-80
2023/11/08 06:28:30;;;;;;;0.20;0.20;;;;;;;10.98;100.00;100513.28;5028759;28;20037;-77
2023/11/08 06:31:05;;;;;;;8.40;2.35;;;;;;;10.59;100.00;100435.41;5032702;28;20049;-79
2023/11/08 06:33:57;;;;;;;1.55;1.45;;;;;;;11.26;100.00;100522.88;5016846;28;20167;-77
2023/11/08 06:37:10;;;;;;;2.00;1.83;;;;;;;11.37;100.00;100524.59;5028524;28;20409;-77
2023/11/08 06:39:42;;;;;;;1.40;1.30;;;;;;;11.40;100.00;100529.88;5006910;28;20484;-76
2023/11/08 06:42:08;;;;;;;0.25;0.25;;;;;;;11.01;100.00;100456.38;5052796;28;20021;-78
2023/11/08 06:45:14;;;;;;;4.28;2.70;;;;;;;11.49;100.00;100531.59;5052735;28;20025;-78
2023/11/08 06:48:02;;;;;;;6.90;3.63;;;;;;;11.60;100.00;100507.94;5013449;28;20571;-80
2023/11/08 06:50:43;;;;;;;0.20;0.20;;;;;;;10.83;100.00;100389.88;5031753;28;20033;-79
2023/11/08 06:53:12;;;;;;;2.90;2.63;;;;;;;11.50;100.00;100475.53;5021939;28;20190;-79
2023/11/08 06:55:46;;;;;;;1.45;1.35;;;;;;;11.77;100.00;100492.97;5009094;28;20112;-79
2023/11/08 06:58:19;;;;;;;0.40;0.20;;;;;;;11.81;100.00;100485.94;5027098;28;20044;-80
2023/11/08 07:00:49;;;;;;;0.20;0.20;;;;;;;11.99;100.00;100480.66;4989061;28;20377;-78
2023/11/08 07:06:07;;;;;;;7.22;3.10;;;;;;;12.33;100.00;100469.94;4993946;28;20099;-76
2023/11/08 07:08:44;;;;;;;1.70;1.60;;;;;;;12.52;100.00;100469.81;5046430;28;20021;-77
2023/11/08 07:11:58;;;;;;;4.65;4.18;;;;;;;12.68;100.00;100464.41;5036783;28;20029;-78
2023/11/08 07:14:30;;;;;;;2.60;2.25;;;;;;;12.87;100.00;100461.63;5033877;28;20132;-79
2023/11/08 07:16:56;;;;;;;2.83;2.15;;;;;;;12.80;100.00;100458.16;5030665;28;20046;-77
2023/11/08 07:19:22;;;;;;;2.05;1.42;;;;;;;12.91;100.00;100425.63;5012776;28;20041;-75
2023/11/08 07:21:58;;;;;;;2.67;2.47;;;;;;;13.13;100.00;100448.22;5029675;28;20530;-75
2023/11/08 07:24:23;;;;;;;1.90;1.75;;;;;;;13.09;100.00;100420.19;5030518;28;20037;-74
2023/11/08 07:26:51;;;;;;;3.40;2.95;;;;;;;13.24;100.00;100420.00;5030026;28;20021;-74
2023/11/08 07:29:16;;;;;;;2.90;2.25;;;;;;;13.44;100.00;100424.22;5012856;28;20046;-74
2023/11/08 07:32:08;;;;;;;2.20;2.00;;;;;;;13.48;100.00;100425.91;5029360;28;20046;-73
2023/11/08 07:34:34;;;;;;;1.33;1.23;;;;;;;13.36;100.00;100416.38;5035893;28;20052;-73
2023/11/08 07:37:00;;;;;;;2.38;2.17;;;;;;;12.92;100.00;100303.56;5045799;28;20049;-73
2023/11/08 07:39:25;;;;;;;0.98;0.93;;;;;;;13.15;100.00;100303.31;5043291;28;20417;-75
2023/11/08 07:41:51;;;;;;;2.58;1.60;;;;;;;13.93;100.00;100407.78;5031744;28;20029;-74
2023/11/08 07:44:17;;;;;;;1.50;1.35;;;;;;;13.35;100.00;100282.88;5036731;28;20492;-73
2023/11/08 07:46:42;;;;;;;4.50;2.70;;;;;;;14.54;100.00;100401.59;5032801;28;20436;-72
2023/11/08 07:49:08;;;;;;;1.88;1.77;;;;;;;16.20;100.00;100307.44;5037080;28;20047;-72
2023/11/08 07:51:33;;;;;;;4.22;1.83;;;;;;;18.02;100.00;100383.72;5042442;28;20029;-73
2023/11/08 07:54:00;;;;;;;2.42;2.22;;;;;;;17.79;100.00;100395.00;5032562;28;20091;-74
2023/11/08 07:56:26;;;;;;;1.98;1.83;;;;;;;16.73;100.00;100387.31;5042113;28;20039;-73
2023/11/08 07:58:53;;;;;;;4.13;2.65;;;;;;;16.94;100.00;100369.16;5050130;28;20040;-74
2023/11/08 08:04:40;;;;;;;2.45;2.03;;;;;;;16.36;100.00;100382.06;5029004;28;20059;-76
2023/11/08 08:07:48;;;;;;;1.55;1.38;;;;;;;16.32;100.00;100410.41;5045618;28;20200;-73
2023/11/08 08:13:23;;;;;;;1.85;1.58;;;;;;;15.50;100.00;100395.44;5030207;28;20080;-73
2023/11/08 08:15:49;;;;;;;2.05;1.63;;;;;;;15.82;100.00;100409.75;5031516;28;20065;-74
2023/11/08 08:18:14;;;;;;;3.60;2.28;;;;;;;15.58;100.00;100384.69;5010315;28;20041;-74
2023/11/08 08:21:26;;;;;;;2.10;1.27;;;;;;;16.39;100.00;100417.31;5040152;28;20469;-74
2023/11/08 08:23:54;;;;;;;18.48;4.20;;;;;;;16.67;100.00;100408.69;5050109;28;20048;-74
2023/11/08 08:26:19;;;;;;;1.60;1.45;;;;;;;16.05;100.00;100385.44;5037193;28;20180;-74
2023/11/08 08:28:46;;;;;;;3.50;2.20;;;;;;;16.12;100.00;100392.34;5032601;28;20037;-75
2023/11/08 08:31:13;;;;;;;2.95;2.75;;;;;;;16.23;100.00;100398.25;5031844;28;20029;-76
2023/11/08 08:37:00;;;;;;;2.97;1.13;;;;;;;15.84;100.00;100405.31;5028382;28;20431;-74
2023/11/08 08:39:27;;;;;;;3.95;3.60;;;;;;;16.03;100.00;100404.00;5045152;28;20033;-74
2023/11/08 08:41:54;;;;;;;5.68;2.80;;;;;;;15.98;100.00;100395.28;5053997;28;20389;-73
2023/11/08 08:44:19;;;;;;;1.95;1.70;;;;;;;15.38;100.00;100298.72;5025024;28;20052;-74
2023/11/08 08:46:52;;;;;;;2.80;2.53;;;;;;;15.67;100.00;100309.56;5052472;28;20087;-73
2023/11/08 08:49:18;;;;;;;2.88;2.33;;;;;;;15.69;100.00;100313.91;5018317;28;20587;-73
2023/11/08 08:51:43;;;;;;;5.20;3.03;;;;;;;16.07;100.00;100367.75;5035957;28;20436;-75
2023/11/08 08:54:58;;;;;;;2.70;2.08;;;;;;;16.31;100.00;100386.59;5033227;28;20025;-73
2023/11/08 08:57:50;;;;;;;2.70;2.15;;;;;;;16.30;100.00;100384.88;5030518;28;20504;-74
2023/11/08 09:01:08;;;;;;;4.82;3.35;;;;;;;16.46;100.00;100388.91;5031471;28;20072;-73
2023/11/08 09:03:33;;;;;;;4.47;4.07;;;;;;;16.68;100.00;100375.97;5018069;28;20372;-75
2023/11/08 09:05:59;;;;;;;7.30;3.42;;;;;;;16.11;100.00;100292.66;5050368;28;20025;-74
2023/11/08 09:08:26;;;;;;;4.10;2.30;;;;;;;16.09;100.00;100289.19;5032503;28;20036;-74
2023/11/08 09:10:53;;;;;;;2.92;2.20;;;;;;;16.19;100.00;100303.91;5030489;28;20064;-73
2023/11/08 09:13:18;;;;;;;2.95;1.95;;;;;;;16.62;100.00;100395.56;5024737;28;20029;-70
2023/11/08 09:15:44;;;;;;;3.75;1.85;;;;;;;16.62;100.00;100406.16;5044961;28;20365;-71
2023/11/08 09:18:59;;;;;;;6.20;2.30;;;;;;;16.91;100.00;100388.66;5046526;28;20018;-70
2023/11/08 09:21:25;;;;;;;3.40;1.98;;;;;;;16.64;100.00;100298.31;5035460;28;20480;-71
2023/11/08 09:23:51;;;;;;;2.65;2.40;;;;;;;16.43;100.00;100306.84;5020754;28;20416;-70
2023/11/08 09:26:17;;;;;;;2.10;1.90;;;;;;;17.03;100.00;100383.00;5047278;28;20049;-70
2023/11/08 09:28:43;;;;;;;1.48;1.02;;;;;;;16.50;100.00;100316.38;5036635;28;20547;-71
2023/11/08 09:31:11;;;;;;;5.63;5.13;;;;;;;16.88;100.00;100388.75;5046838;28;20491;-72
2023/11/08 09:33:37;;;;;;;1.95;1.55;;;;;;;16.43;100.00;100396.91;5017129;28;20120;-72
2023/11/08 09:36:04;;;;;;;3.17;2.17;;;;;;;17.30;100.00;100404.38;5036368;28;20189;-72
2023/11/08 09:42:00;;;;;;;3.63;3.33;;;;;;;16.98;100.00;100390.22;5032934;28;20099;-71
2023/11/08 09:44:27;;;;;;;1.20;0.82;;;;;;;16.79;100.00;100419.00;5029766;28;20041;-70
2023/11/08 09:46:54;;;;;;;2.33;2.13;;;;;;;17.22;100.00;100417.84;5020615;28;20116;-71
2023/11/08 09:49:23;;;;;;;1.35;1.25;;;;;;;16.75;100.00;100430.53;5031968;28;20045;-72
2023/11/08 09:51:53;;;;;;;7.00;3.00;;;;;;;17.11;100.00;100437.63;5042888;28;20040;-71
2023/11/08 09:54:18;;;;;;;2.22;2.05;;;;;;;17.05;100.00;100439.53;5030543;28;20339;-73
2023/11/08 09:56:45;;;;;;;4.38;1.17;;;;;;;16.48;100.00;100412.69;5020896;28;20040;-75
2023/11/08 09:59:15;;;;;;;3.25;1.92;;;;;;;17.07;100.00;100423.59;5022122;28;20042;-73
2023/11/08 10:01:53;;;;;;;1.85;1.75;;;;;;;16.76;100.00;100423.47;5013160;28;20438;-75
2023/11/08 10:04:21;;;;;;;1.42;1.25;;;;;;;15.88;100.00;100359.38;5019334;28;20077;-75
2023/11/08 10:06:47;;;;;;;1.80;1.60;;;;;;;16.12;100.00;100420.59;5024249;28;20037;-75
2023/11/08 10:09:31;;;;;;;5.90;2.30;;;;;;;16.15;100.00;100409.91;5030801;28;20032;-75
2023/11/08 10:12:21;;;;;;;3.92;2.38;;;;;;;16.11;100.00;100348.25;5029591;28;20116;-75
2023/11/08 10:14:58;;;;;;;2.33;1.30;;;;;;;15.92;100.00;100307.22;5035278;28;20552;-76
2023/11/08 10:17:37;;;;;;;7.70;0.93;;;;;;;16.13;100.00;100390.53;5035754;28;20396;-74
2023/11/08 10:20:06;;;;;;;2.25;1.77;;;;;;;15.56;100.00;100304.50;5013071;28;20402;-74
2023/11/08 10:22:32;;;;;;;2.20;1.95;;;;;;;16.00;100.00;100372.31;5028525;28;20033;-75
2023/11/08 10:25:00;;;;;;;3.67;2.55;;;;;;;16.19;100.00;100374.53;5025052;28;20041;-82
2023/11/08 10:27:31;;;;;;;5.25;2.42;;;;;;;15.84;100.00;100355.03;5029843;28;20044;-77
2023/11/08 10:30:20;;;;;;;1.65;1.55;;;;;;;16.05;100.00;100366.91;5030130;28;20033;-80
2023/11/08 10:32:48;;;;;;;0.88;0.82;;;;;;;15.88;100.00;100361.16;5006866;28;20133;-81
2023/11/08 10:35:31;;;;;;;2.38;2.08;;;;;;;15.95;100.00;100360.09;5002274;28;20044;-80
2023/11/08 10:39:01;;;;;;;3.15;2.95;;;;;;;16.11;100.00;100347.34;4983024;28;20533;-80
2023/11/08 11:08:58;;;;;;;3.75;1.55;;;;;;;15.60;100.00;100386.38;4889251;29;20125;-81
2023/11/08 11:11:59;;;;;;;1.27;0.93;;;;;;;15.38;100.00;100407.13;4911520;28;20535;-81
2023/11/08 11:14:52;;;;;;;0.35;0.35;;;;;;;15.34;100.00;100409.88;4930338;28;20047;-82
2023/11/08 11:17:34;;;;;;;4.22;2.25;;;;;;;15.49;100.00;100417.47;5009072;28;20045;-82
2023/11/08 11:21:06;;;;;;;9.52;2.95;;;;;;;15.18;100.00;100420.72;4970377;28;20057;-82
2023/11/08 11:24:13;;;;;;;;;;;;;;;;;;;;;
2023/11/08 11:27:04;;;;;;;;;;;;;;;;;;;;;
2023/11/08 11:30:05;;;;;;;1.08;0.98;;;;;;;15.24;100.00;100440.91;5031358;28;20444;-80
2023/11/08 11:37:06;;;;;;;4.53;2.72;;;;;;;14.76;100.00;100464.63;4958533;28;20136;-78
2023/11/08 11:39:55;;;;;;;8.85;3.00;;;;;;;14.62;100.00;100462.19;4969101;28;20030;-78
2023/11/08 11:42:47;;;;;;;2.95;2.08;;;;;;;14.89;100.00;100468.81;4949874;28;20035;-77
2023/11/08 11:46:11;;;;;;;3.47;2.60;;;;;;;14.56;100.00;100480.78;4949431;28;20116;-79
2023/11/08 11:48:37;;;;;;;3.03;2.78;;;;;;;14.53;100.00;100463.19;4906701;28;20130;-80
2023/11/08 11:51:26;;;;;;;1.08;0.93;;;;;;;14.53;100.00;100475.50;4951581;28;20122;-79
2023/11/08 11:54:17;;;;;;;3.00;2.03;;;;;;;14.52;100.00;100479.06;4978728;28;20039;-80
2023/11/08 11:56:59;;;;;;;5.53;1.60;;;;;;;13.88;100.00;100389.38;4937693;28;20104;-81
2023/11/08 12:03:45;;;;;;;2.83;1.95;;;;;;;14.33;100.00;100481.97;4851782;29;20430;-82
2023/11/08 12:06:49;;;;;;;1.42;1.08;;;;;;;14.10;100.00;100494.63;4844813;29;20121;-80
2023/11/08 12:09:15;;;;;;;3.33;1.95;;;;;;;14.27;100.00;100487.31;4858541;29;20089;-79
2023/11/08 12:11:50;;;;;;;6.03;2.47;;;;;;;13.56;100.00;100410.91;4911500;29;20148;-79
2023/11/08 12:15:05;;;;;;;2.00;1.77;;;;;;;14.00;100.00;100491.22;5001032;28;20408;-78
2023/11/08 12:21:29;;;;;;;;;;;;;;;;;;;;;
2023/11/08 12:28:07;;;;;;;1.85;1.13;;;;;;;13.29;100.00;100417.34;5013317;28;20057;-83
2023/11/08 12:31:17;;;;;;;2.85;2.30;;;;;;;13.83;100.00;100509.88;4995980;28;20049;-76
2023/11/08 12:34:05;;;;;;;6.90;3.35;;;;;;;13.26;100.00;100472.69;5007505;28;20037;-79
2023/11/08 12:37:12;;;;;;;2.15;1.77;;;;;;;12.89;100.00;100409.81;5025708;28;20026;-77
2023/11/08 12:39:42;;;;;;;3.08;2.85;;;;;;;13.38;100.00;100453.28;5014629;28;20044;-78
2023/11/08 12:42:15;;;;;;;1.52;1.42;;;;;;;13.33;100.00;100440.16;5010346;28;20026;-80
2023/11/08 12:44:47;;;;;;;3.78;1.52;;;;;;;13.52;100.00;100488.28;5000459;28;20055;-78
2023/11/08 12:47:13;;;;;;;2.58;1.00;;;;;;;12.99;100.00;100419.38;5001120;28;20070;-77
2023/11/08 12:49:38;;;;;;;2.35;2.15;;;;;;;13.54;100.00;100501.44;5012288;28;20062;-77
2023/11/08 12:52:10;;;;;;;4.05;2.88;;;;;;;13.59;100.00;100504.91;5002690;28;20037;-76
2023/11/08 12:54:39;;;;;;;2.60;2.08;;;;;;;13.36;100.00;100537.63;5014273;28;20034;-76
2023/11/08 12:57:05;;;;;;;3.08;2.78;;;;;;;12.77;100.00;100384.47;5016502;28;20477;-76
2023/11/08 12:59:32;;;;;;;1.63;1.52;;;;;;;12.97;100.00;100422.91;4996830;28;20030;-74
2023/11/08 13:02:18;;;;;;;2.30;2.10;;;;;;;13.51;100.00;100531.34;5016512;28;20056;-77
2023/11/08 13:04:48;;;;;;;3.33;2.20;;;;;;;13.33;100.00;100519.22;5018481;28;20078;-74
2023/11/08 13:07:13;;;;;;;3.88;3.53;;;;;;;13.28;100.00;100516.63;5022235;28;20324;-74
2023/11/08 13:09:42;;;;;;;3.80;2.05;;;;;;;13.02;100.00;100494.88;5014495;28;20036;-74
2023/11/08 13:15:48;;;;;;;2.75;2.53;;;;;;;13.46;100.00;100575.31;5026312;28;20047;-74
2023/11/08 13:25:07;;;;;;;1.42;1.25;;;;;;;13.48;100.00;100594.63;5013501;28;20056;-75
2023/11/08 13:27:34;;;;;;;2.38;2.17;;;;;;;13.45;100.00;100570.94;5011075;28;20121;-75
2023/11/08 13:30:00;;;;;;;1.60;1.40;;;;;;;12.85;100.00;100460.78;5012570;28;20026;-75
2023/11/08 13:32:34;;;;;;;1.83;1.40;;;;;;;13.49;100.00;100573.53;5015071;28;20048;-74
2023/11/08 13:38:22;;;;;;;3.50;3.03;;;;;;;12.78;100.00;100477.50;5013927;28;20112;-76
2023/11/08 13:40:47;;;;;;;1.10;0.90;;;;;;;12.96;100.00;100530.03;5017025;28;20449;-75
2023/11/08 13:43:13;;;;;;;5.28;3.05;;;;;;;12.83;100.00;100481.88;5030424;28;20033;-75
2023/11/08 13:45:39;;;;;;;2.65;1.63;;;;;;;12.82;100.00;100477.47;5021990;28;20052;-74
2023/11/08 13:48:10;;;;;;;5.43;3.03;;;;;;;12.71;100.00;100446.84;5031161;28;20577;-74
2023/11/08 13:50:36;;;;;;;1.55;1.45;;;;;;;13.39;100.00;100573.63;5013756;28;20025;-75
2023/11/08 13:53:02;;;;;;;2.85;2.60;;;;;;;12.92;100.00;100493.19;5021066;28;20042;-75
2023/11/08 13:55:27;;;;;;;3.88;2.97;;;;;;;13.04;100.00;100561.56;4993257;28;20493;-74
2023/11/08 13:57:53;;;;;;;11.45;3.03;;;;;;;12.67;100.00;100490.78;5024577;28;20049;-75
2023/11/08 14:00:20;;;;;;;1.77;1.67;;;;;;;13.31;100.00;100581.59;5032016;28;20299;-74
2023/11/08 14:02:48;;;;;;;3.45;2.05;;;;;;;12.86;100.00;100489.72;5011773;28;20022;-74
2023/11/08 14:05:47;;;;;;;4.13;3.05;;;;;;;13.37;100.00;100583.31;5016970;28;20037;-74
2023/11/08 14:08:21;;;;;;;3.85;3.55;;;;;;;12.70;100.00;100474.06;5011615;28;20041;-75
2023/11/08 14:10:59;;;;;;;6.22;4.80;;;;;;;12.88;100.00;100487.09;5008771;28;20058;-75
2023/11/08 14:13:24;;;;;;;3.78;3.42;;;;;;;13.28;100.00;100527.16;5009715;28;20257;-75
2023/11/08 14:15:50;;;;;;;2.85;2.65;;;;;;;13.17;100.00;100520.22;5012418;28;20502;-75
2023/11/08 14:19:05;;;;;;;3.85;3.53;;;;;;;13.29;100.00;100551.75;5017318;28;20083;-75
2023/11/08 14:21:52;;;;;;;5.25;3.40;;;;;;;13.27;100.00;100548.22;5007918;28;20056;-75